Princess Juliana International Airport

TNCM | SXM

Saint Martin

Wednesday, December 11th, 2019 | 12:18

Weather

TNCM 111600Z 05015G27KT 030V090 9999 FEW018 30/21 Q1017 NOSIG

Charts

No Charts Available

Gates

68 Available

Runways

1 Available

Events

No events for this airport


New event